createdAt,value
2023-05-21T00:01:10.608Z,101405.00
2023-05-21T00:03:41.928Z,101402.31
2023-05-21T00:06:09.399Z,101395.13
2023-05-21T00:08:36.611Z,101406.72
2023-05-21T00:11:03.891Z,101406.84
2023-05-21T00:13:31.089Z,101397.91
2023-05-21T00:15:58.410Z,101396.22
2023-05-21T00:18:25.726Z,101393.53
2023-05-21T00:20:53.105Z,101389.84
2023-05-21T00:23:21.481Z,101397.06
2023-05-21T00:25:50.422Z,101393.38
2023-05-21T00:28:17.646Z,101392.28
2023-05-21T00:30:45.771Z,101397.06
2023-05-21T00:33:13.954Z,101397.91
2023-05-21T00:35:41.321Z,101387.31
2023-05-21T00:38:08.733Z,101399.88
2023-05-21T00:40:36.629Z,101395.38
2023-05-21T00:43:03.893Z,101390.84
2023-05-21T00:45:31.143Z,101396.22
2023-05-21T00:47:58.654Z,101388.25
2023-05-21T00:50:26.086Z,101385.47
2023-05-21T00:52:53.422Z,101382.88
2023-05-21T00:55:20.855Z,101383.72
2023-05-21T00:57:49.453Z,101379.22
2023-05-21T01:00:16.836Z,101373.84
2023-05-21T01:02:45.824Z,101381.91
2023-05-21T01:05:13.305Z,101372.72
2023-05-21T01:07:41.873Z,101371.28
2023-05-21T01:10:10.545Z,101373.09
2023-05-21T01:12:39.544Z,101364.19
2023-05-21T01:15:06.964Z,101363.94
2023-05-21T01:17:34.497Z,101363.34
2023-05-21T01:20:08.016Z,101358.91
2023-05-21T01:22:47.507Z,101361.59
2023-05-21T01:25:15.053Z,101355.38
2023-05-21T01:27:42.327Z,101357.13
2023-05-21T01:30:09.892Z,101354.28
2023-05-21T01:32:50.715Z,101354.41
2023-05-21T01:35:23.181Z,101354.28
2023-05-21T01:38:04.633Z,101360.66
2023-05-21T01:40:54.281Z,101355.28
2023-05-21T01:43:23.739Z,101351.72
2023-05-21T01:45:54.702Z,101351.72
2023-05-21T01:48:27.364Z,101356.13
2023-05-21T01:50:55.961Z,101355.38
2023-05-21T01:53:23.210Z,101347.31
2023-05-21T01:55:50.447Z,101346.34
2023-05-21T01:58:18.464Z,101345.47
2023-05-21T02:00:46.603Z,101344.63
2023-05-21T02:03:17.368Z,101345.47
2023-05-21T02:05:45.027Z,101339.25
2023-05-21T02:08:12.900Z,101345.47
2023-05-21T02:10:40.281Z,101343.66
2023-05-21T02:13:07.653Z,101335.59
2023-05-21T02:15:35.451Z,101339.25
2023-05-21T02:18:03.468Z,101334.84
2023-05-21T02:20:31.383Z,101327.63
2023-05-21T02:22:58.626Z,101326.78
2023-05-21T02:25:25.892Z,101317.72
2023-05-21T02:27:53.965Z,101325.09
2023-05-21T02:30:21.393Z,101319.56
2023-05-21T02:32:48.954Z,101325.09
2023-05-21T02:35:16.323Z,101317.03
2023-05-21T02:37:46.748Z,101321.50
2023-05-21T02:40:14.159Z,101318.81
2023-05-21T02:42:41.670Z,101320.56
2023-05-21T02:45:10.974Z,101319.72
2023-05-21T02:47:38.640Z,101315.28
2023-05-21T02:50:07.812Z,101312.59
2023-05-21T02:52:35.476Z,101309.91
2023-05-21T02:55:02.788Z,101309.91
2023-05-21T02:57:30.045Z,101307.22
2023-05-21T02:59:57.256Z,101310.91
2023-05-21T03:02:24.673Z,101305.38
2023-05-21T03:04:52.043Z,101310.91
2023-05-21T03:07:20.331Z,101307.47
2023-05-21T03:09:47.541Z,101303.69
2023-05-21T03:12:14.794Z,101305.53
2023-05-21T03:14:46.279Z,101298.44
2023-05-21T03:17:17.122Z,101298.44
2023-05-21T03:19:44.810Z,101300.13
2023-05-21T03:22:12.089Z,101300.13
2023-05-21T03:24:39.832Z,101301.00
2023-05-21T03:27:07.514Z,101305.63
2023-05-21T03:29:35.205Z,101309.19
2023-05-21T03:32:02.831Z,101308.31
2023-05-21T03:34:30.223Z,101306.50
2023-05-21T03:36:57.478Z,101302.09
2023-05-21T03:39:24.686Z,101301.84
2023-05-21T03:41:52.144Z,101311.00
2023-05-21T03:44:19.355Z,101310.06
2023-05-21T03:46:46.625Z,101316.28
2023-05-21T03:49:15.260Z,101311.00
2023-05-21T03:51:42.516Z,101311.16
2023-05-21T03:54:09.738Z,101312.84
2023-05-21T03:56:36.949Z,101309.19
2023-05-21T03:59:04.224Z,101314.44
2023-05-21T04:01:33.013Z,101306.50
2023-05-21T04:04:00.503Z,101313.69
2023-05-21T04:06:28.122Z,101314.56
2023-05-21T04:08:55.426Z,101311.88
2023-05-21T04:11:22.720Z,101315.28
2023-05-21T04:13:51.640Z,101311.88
2023-05-21T04:16:19.495Z,101313.34
2023-05-21T04:18:47.533Z,101314.44
2023-05-21T04:21:14.838Z,101311.88
2023-05-21T04:23:42.204Z,101315.44
2023-05-21T04:26:09.411Z,101318.13
2023-05-21T04:28:36.892Z,101320.66
2023-05-21T04:31:05.729Z,101317.13
2023-05-21T04:33:32.996Z,101315.03
2023-05-21T04:36:00.268Z,101319.72
2023-05-21T04:38:27.482Z,101322.41
2023-05-21T04:40:55.683Z,101323.34
2023-05-21T04:43:26.547Z,101319.81
2023-05-21T04:45:56.974Z,101321.50
2023-05-21T04:48:27.493Z,101319.72
2023-05-21T04:50:56.023Z,101332.16
2023-05-21T04:53:23.841Z,101324.09
2023-05-21T04:55:51.152Z,101325.78
2023-05-21T04:58:19.157Z,101323.09
2023-05-21T05:00:46.942Z,101333.88
2023-05-21T05:03:14.692Z,101341.81
2023-05-21T05:05:42.139Z,101323.00
2023-05-21T05:08:09.366Z,101325.69
2023-05-21T05:10:36.783Z,101335.59
2023-05-21T05:13:04.075Z,101321.03
2023-05-21T05:15:31.277Z,101337.16
2023-05-21T05:17:58.524Z,101325.53
2023-05-21T05:20:25.931Z,101331.66
2023-05-21T05:22:53.179Z,101326.41
2023-05-21T05:25:21.127Z,101323.72
2023-05-21T05:27:48.381Z,101323.59
2023-05-21T05:30:15.642Z,101325.44
2023-05-21T05:32:42.880Z,101323.72
2023-05-21T05:35:10.775Z,101316.50
2023-05-21T05:37:38.025Z,101329.09
2023-05-21T05:40:06.196Z,101322.75
2023-05-21T05:42:33.501Z,101331.78
2023-05-21T05:45:00.876Z,101326.28
2023-05-21T05:47:28.117Z,101324.44
2023-05-21T05:49:55.380Z,101323.59
2023-05-21T05:52:22.623Z,101322.75
2023-05-21T05:54:49.865Z,101326.16
2023-05-21T05:57:17.146Z,101319.06
2023-05-21T05:59:44.364Z,101322.59
2023-05-21T06:02:11.724Z,101322.59
2023-05-21T06:04:38.951Z,101319.91
2023-05-21T06:07:06.522Z,101321.75
2023-05-21T06:09:33.773Z,101320.78
2023-05-21T06:12:01.295Z,101317.13
2023-05-21T06:14:28.501Z,101320.91
2023-05-21T06:16:55.702Z,101312.69
2023-05-21T06:19:22.973Z,101308.16
2023-05-21T06:21:50.678Z,101310.75
2023-05-21T06:24:17.906Z,101310.75
2023-05-21T06:26:45.148Z,101316.97
2023-05-21T06:29:13.632Z,101321.25
2023-05-21T06:31:42.707Z,101313.78
2023-05-21T06:34:11.708Z,101319.03
2023-05-21T06:36:39.030Z,101310.84
2023-05-21T06:39:06.295Z,101314.28
2023-05-21T06:41:33.564Z,101307.75
2023-05-21T06:44:00.770Z,101311.19
2023-05-21T06:46:28.132Z,101308.38
2023-05-21T06:48:55.856Z,101300.19
2023-05-21T06:51:23.139Z,101309.00
2023-05-21T06:53:50.966Z,101311.53
2023-05-21T06:56:18.190Z,101304.22
2023-05-21T06:58:45.534Z,101297.97
2023-05-21T07:01:12.967Z,101297.84
2023-05-21T07:03:40.354Z,101291.47
2023-05-21T07:06:07.669Z,101297.72
2023-05-21T07:08:34.990Z,101294.88
2023-05-21T07:11:02.587Z,101302.97
2023-05-21T07:13:30.414Z,101299.41
2023-05-21T07:15:57.860Z,101299.41
2023-05-21T07:18:25.114Z,101303.09
2023-05-21T07:20:54.637Z,101303.22
2023-05-21T07:23:22.143Z,101303.34
2023-05-21T07:25:49.534Z,101303.34
2023-05-21T07:28:16.817Z,101302.63
2023-05-21T07:30:44.209Z,101300.91
2023-05-21T07:33:12.559Z,101294.66
2023-05-21T07:35:39.972Z,101291.97
2023-05-21T07:38:07.238Z,101297.34
2023-05-21T07:40:34.436Z,101300.03
2023-05-21T07:43:01.697Z,101293.94
2023-05-21T07:45:32.090Z,101296.50
2023-05-21T07:47:59.360Z,101292.97
2023-05-21T07:50:26.765Z,101291.97
2023-05-21T07:52:54.047Z,101287.56
2023-05-21T07:55:21.689Z,101284.88
2023-05-21T07:57:49.509Z,101285.72
2023-05-21T08:00:16.827Z,101282.19
2023-05-21T08:02:44.380Z,101281.19
2023-05-21T08:05:12.019Z,101285.88
2023-05-21T08:07:39.294Z,101276.81
2023-05-21T08:10:07.076Z,101276.81
2023-05-21T08:12:34.363Z,101267.75
2023-05-21T08:15:01.553Z,101275.81
2023-05-21T08:17:28.913Z,101280.34
2023-05-21T08:19:56.591Z,101282.19
2023-05-21T08:22:23.809Z,101275.81
2023-05-21T08:24:51.071Z,101274.97
2023-05-21T08:27:18.302Z,101283.91
2023-05-21T08:29:45.808Z,101274.97
2023-05-21T08:32:13.118Z,101266.91
2023-05-21T08:34:40.342Z,101275.81
2023-05-21T08:37:07.567Z,101281.19
2023-05-21T08:39:34.877Z,101272.16
2023-05-21T08:42:40.643Z,101265.06
2023-05-21T08:45:08.551Z,101275.81
2023-05-21T08:47:37.159Z,101283.91
2023-05-21T08:50:15.478Z,101280.34
2023-05-21T08:52:42.837Z,101278.50
2023-05-21T08:55:10.738Z,101275.81
2023-05-21T08:57:38.334Z,101280.25
2023-05-21T09:00:09.968Z,101278.41
2023-05-21T09:02:40.897Z,101279.25
2023-05-21T09:05:09.969Z,101264.94
2023-05-21T09:07:39.794Z,101265.69
2023-05-21T09:10:13.471Z,101257.72
2023-05-21T09:12:40.910Z,101268.50
2023-05-21T09:15:08.598Z,101260.41
2023-05-21T09:17:36.218Z,101259.56
2023-05-21T09:20:17.369Z,101258.56
2023-05-21T09:22:46.622Z,101257.63
2023-05-21T09:25:22.034Z,101259.41
2023-05-21T09:27:49.325Z,101260.41
2023-05-21T09:30:18.155Z,101252.22
2023-05-21T09:32:46.685Z,101257.47
2023-05-21T09:35:15.017Z,101256.63
2023-05-21T09:37:47.580Z,101261.16
2023-05-21T09:40:22.067Z,101252.09
2023-05-21T09:42:50.796Z,101257.47
2023-05-21T09:45:22.307Z,101255.63
2023-05-21T09:47:50.604Z,101246.72
2023-05-21T09:50:27.003Z,101251.09
2023-05-21T09:52:55.489Z,101248.38
2023-05-21T09:55:24.722Z,101248.84
2023-05-21T09:57:52.848Z,101250.91
2023-05-21T10:00:24.800Z,101241.72
2023-05-21T10:02:56.158Z,101254.41
2023-05-21T10:05:27.752Z,101230.59
2023-05-21T10:08:01.908Z,101238.25
2023-05-21T10:10:31.035Z,101233.13
2023-05-21T10:13:09.930Z,101231.41
2023-05-21T10:15:47.397Z,101215.25
2023-05-21T10:18:17.234Z,101211.69
2023-05-21T10:20:45.038Z,101215.75
2023-05-21T10:23:13.145Z,101216.03
2023-05-21T10:25:41.168Z,101206.41
2023-05-21T10:28:08.422Z,101208.22
2023-05-21T10:30:37.162Z,101209.22
2023-05-21T10:33:05.366Z,101203.81
2023-05-21T10:35:34.430Z,101209.22
2023-05-21T10:38:04.046Z,101208.34
2023-05-21T10:40:33.634Z,101208.53
2023-05-21T10:43:28.698Z,101212.53
2023-05-21T10:46:33.559Z,101207.03
2023-05-21T10:49:34.790Z,101194.28
2023-05-21T10:52:51.394Z,101198.56
2023-05-21T10:55:29.685Z,101199.28
2023-05-21T10:58:14.462Z,101194.50
2023-05-21T11:00:43.611Z,101196.44
2023-05-21T11:03:13.275Z,101191.47
2023-05-21T11:05:54.093Z,101184.41
2023-05-21T11:08:35.613Z,101184.41
2023-05-21T11:11:03.763Z,101187.09
2023-05-21T11:17:38.860Z,101183.78
2023-05-21T11:20:10.787Z,101183.94
2023-05-21T11:22:38.793Z,101173.28
2023-05-21T11:25:06.610Z,101182.22
2023-05-21T11:27:41.241Z,101178.66
2023-05-21T11:30:10.334Z,101177.69
2023-05-21T11:32:39.907Z,101172.16
2023-05-21T11:35:08.157Z,101180.25
2023-05-21T11:37:40.782Z,101176.59
2023-05-21T11:40:37.248Z,101175.75
2023-05-21T11:43:04.824Z,101173.25
2023-05-21T11:45:33.224Z,101171.56
2023-05-21T11:48:01.156Z,101176.38
2023-05-21T11:50:30.837Z,101175.63
2023-05-21T11:52:59.868Z,101181.34
2023-05-21T11:55:27.865Z,101170.84
2023-05-21T11:57:55.649Z,101176.22
2023-05-21T12:00:23.305Z,101170.69
2023-05-21T12:02:55.932Z,101170.56
2023-05-21T12:05:24.518Z,101180.22
2023-05-21T12:07:52.533Z,101180.22
2023-05-21T12:10:24.257Z,101174.00
2023-05-21T12:12:55.415Z,101170.75
2023-05-21T12:15:25.784Z,101168.06
2023-05-21T12:17:53.458Z,101175.84
2023-05-21T12:20:21.093Z,101158.19
2023-05-21T12:22:52.333Z,101163.03
2023-05-21T12:25:21.000Z,101158.34
2023-05-21T12:27:49.677Z,101161.03
2023-05-21T12:30:17.181Z,101165.72
2023-05-21T12:32:44.549Z,101170.19
2023-05-21T12:35:22.368Z,101152.75
2023-05-21T12:37:51.034Z,101153.34
2023-05-21T12:40:19.094Z,101147.69
2023-05-21T12:42:46.424Z,101158.56
2023-05-21T12:45:14.161Z,101161.53
2023-05-21T12:47:44.450Z,101155.56
2023-05-21T12:50:13.787Z,101154.88
2023-05-21T12:52:43.011Z,101163.91
2023-05-21T12:55:12.556Z,101166.50
2023-05-21T12:57:39.810Z,101158.41
2023-05-21T13:00:12.638Z,101152.19
2023-05-21T13:02:41.654Z,101153.88
2023-05-21T13:05:11.530Z,101144.94
2023-05-21T13:07:40.962Z,101147.50
2023-05-21T13:10:09.109Z,101141.41
2023-05-21T13:12:36.721Z,101136.03
2023-05-21T13:15:05.417Z,101131.47
2023-05-21T13:17:32.713Z,101147.63
2023-05-21T13:20:20.400Z,101144.09
2023-05-21T13:22:49.257Z,101141.41
2023-05-21T13:25:20.004Z,101133.31
2023-05-21T13:27:48.330Z,101133.75
2023-05-21T13:30:15.934Z,101143.13
2023-05-21T13:32:43.828Z,101127.56
2023-05-21T13:35:12.102Z,101129.81
2023-05-21T13:37:40.545Z,101124.44
2023-05-21T13:40:14.483Z,101123.31
2023-05-21T13:42:45.546Z,101124.31
2023-05-21T13:45:14.113Z,101113.28
2023-05-21T13:47:42.132Z,101114.97
2023-05-21T13:50:10.350Z,101113.13
2023-05-21T13:52:38.277Z,101113.13
2023-05-21T13:55:06.435Z,101114.00
2023-05-21T13:57:34.076Z,101106.59
2023-05-21T14:00:01.734Z,101100.38
2023-05-21T14:02:29.460Z,101108.44
2023-05-21T14:04:56.877Z,101107.59
2023-05-21T14:07:24.132Z,101118.22
2023-05-21T14:09:52.394Z,101114.00
2023-05-21T14:12:19.782Z,101113.69
2023-05-21T14:14:49.705Z,101113.56
2023-05-21T14:17:17.376Z,101114.56
2023-05-21T14:19:44.861Z,101110.31
2023-05-21T14:22:12.092Z,101112.19
2023-05-21T14:24:39.457Z,101116.31
2023-05-21T14:27:06.906Z,101122.28
2023-05-21T14:29:34.357Z,101116.75
2023-05-21T14:32:01.947Z,101118.03
2023-05-21T14:34:29.320Z,101116.63
2023-05-21T14:36:56.651Z,101112.22
2023-05-21T14:39:24.200Z,101098.19
2023-05-21T14:41:51.866Z,101115.47
2023-05-21T14:44:20.020Z,101104.56
2023-05-21T14:46:47.228Z,101106.56
2023-05-21T14:49:14.628Z,101121.56
2023-05-21T14:51:43.577Z,101119.03
2023-05-21T14:54:10.821Z,101120.72
2023-05-21T14:56:38.290Z,101118.88
2023-05-21T14:59:05.534Z,101119.59
2023-05-21T15:01:33.189Z,101119.00
2023-05-21T15:04:02.705Z,101114.75
2023-05-21T15:06:30.497Z,101115.59
2023-05-21T15:08:57.707Z,101105.53
2023-05-21T15:11:25.618Z,101109.22
2023-05-21T15:13:55.387Z,101107.22
2023-05-21T15:16:29.881Z,101110.66
2023-05-21T15:18:57.168Z,101112.34
2023-05-21T15:21:26.483Z,101108.41
2023-05-21T15:23:55.158Z,101113.34
2023-05-21T15:26:22.767Z,101109.22
2023-05-21T15:28:50.055Z,101105.25
2023-05-21T15:31:17.396Z,101097.16
2023-05-21T15:33:44.911Z,101098.88
2023-05-21T15:36:12.165Z,101095.91
2023-05-21T15:38:39.411Z,101109.38
2023-05-21T15:41:07.256Z,101092.22
2023-05-21T15:43:34.667Z,101098.47
2023-05-21T15:46:01.925Z,101097.63
2023-05-21T15:48:29.176Z,101092.22
2023-05-21T15:50:56.419Z,101094.19
2023-05-21T15:53:23.693Z,101097.63
2023-05-21T15:55:50.937Z,101093.66
2023-05-21T15:58:18.291Z,101092.63
2023-05-21T16:00:45.739Z,101090.09
2023-05-21T16:03:13.453Z,101092.22
2023-05-21T16:05:40.942Z,101093.38
2023-05-21T16:08:10.817Z,101086.84
2023-05-21T16:10:39.968Z,101083.00
2023-05-21T16:13:09.577Z,101097.31
2023-05-21T16:15:37.184Z,101097.63
2023-05-21T16:18:05.189Z,101088.09
2023-05-21T16:20:33.364Z,101086.13
2023-05-21T16:23:00.877Z,101081.59
2023-05-21T16:25:28.282Z,101083.16
2023-05-21T16:27:55.762Z,101080.47
2023-05-21T16:30:23.829Z,101084.16
2023-05-21T16:32:51.383Z,101078.31
2023-05-21T16:35:18.782Z,101076.63
2023-05-21T16:37:46.291Z,101085.69
2023-05-21T16:40:29.689Z,101083.16
2023-05-21T16:42:57.030Z,101075.06
2023-05-21T16:45:24.309Z,101078.59
2023-05-21T16:47:52.268Z,101075.75
2023-05-21T16:50:20.262Z,101085.13
2023-05-21T16:52:47.592Z,101078.31
2023-05-21T16:55:15.289Z,101082.13
2023-05-21T16:57:42.515Z,101079.59
2023-05-21T17:00:12.991Z,101086.41
2023-05-21T17:02:40.389Z,101085.69
2023-05-21T17:05:08.105Z,101088.94
2023-05-21T17:07:35.430Z,101083.00
2023-05-21T17:10:04.963Z,101084.56
2023-05-21T17:12:32.656Z,101086.25
2023-05-21T17:15:00.303Z,101091.91
2023-05-21T17:17:27.908Z,101086.53
2023-05-21T17:19:55.461Z,101079.88
2023-05-21T17:22:22.891Z,101083.69
2023-05-21T17:24:50.558Z,101082.28
2023-05-21T17:27:17.843Z,101096.91
2023-05-21T17:29:45.082Z,101093.66
2023-05-21T17:32:12.396Z,101091.06
2023-05-21T17:34:39.728Z,101088.53
2023-05-21T17:37:07.108Z,101095.06
2023-05-21T17:39:34.366Z,101094.31
2023-05-21T17:42:01.792Z,101095.31
2023-05-21T17:44:29.074Z,101095.31
2023-05-21T17:46:56.628Z,101109.53
2023-05-21T17:49:24.029Z,101100.59
2023-05-21T17:51:51.529Z,101104.41
2023-05-21T17:54:19.680Z,101098.59
2023-05-21T17:56:46.874Z,101106.69
2023-05-21T17:59:14.708Z,101106.41
2023-05-21T18:01:41.960Z,101110.41
2023-05-21T18:04:10.823Z,101106.13
2023-05-21T18:06:38.669Z,101110.78
2023-05-21T18:09:07.754Z,101101.28
2023-05-21T18:11:35.492Z,101109.66
2023-05-21T18:14:04.005Z,101109.06
2023-05-21T18:16:31.685Z,101110.94
2023-05-21T18:19:02.120Z,101111.50
2023-05-21T18:21:29.408Z,101115.22
2023-05-21T18:23:56.830Z,101114.22
2023-05-21T18:26:24.639Z,101124.59
2023-05-21T18:28:52.060Z,101122.59
2023-05-21T18:31:19.410Z,101117.75
2023-05-21T18:33:46.697Z,101114.50
2023-05-21T18:36:14.116Z,101117.47
2023-05-21T18:38:41.546Z,101117.63
2023-05-21T18:41:08.864Z,101121.28
2023-05-21T18:43:36.354Z,101122.28
2023-05-21T18:46:03.678Z,101131.38
2023-05-21T18:48:30.999Z,101123.00
2023-05-21T18:50:58.523Z,101136.78
2023-05-21T18:53:25.741Z,101131.94
2023-05-21T18:55:52.965Z,101130.50
2023-05-21T18:58:20.364Z,101137.03
2023-05-21T19:00:47.674Z,101127.09
2023-05-21T19:03:16.236Z,101135.31
2023-05-21T19:05:43.607Z,101141.69
2023-05-21T19:08:11.035Z,101145.22
2023-05-21T19:10:39.295Z,101147.66
2023-05-21T19:13:06.874Z,101153.19
2023-05-21T19:15:34.136Z,101153.47
2023-05-21T19:18:02.582Z,101162.56
2023-05-21T19:20:29.887Z,101160.81
2023-05-21T19:22:57.393Z,101163.63
2023-05-21T19:25:24.705Z,101163.63
2023-05-21T19:27:52.856Z,101170.75
2023-05-21T19:30:20.396Z,101170.47
2023-05-21T19:32:48.025Z,101169.47
2023-05-21T19:35:16.503Z,101173.19
2023-05-21T19:37:43.729Z,101170.75
2023-05-21T19:40:11.599Z,101168.91
2023-05-21T19:42:39.353Z,101170.16
2023-05-21T19:45:09.449Z,101170.16
2023-05-21T19:47:36.814Z,101173.69
2023-05-21T19:50:04.775Z,101169.31
2023-05-21T19:52:32.077Z,101173.84
2023-05-21T19:55:04.668Z,101168.44
2023-05-21T19:57:32.782Z,101172.84
2023-05-21T20:00:00.117Z,101178.34
2023-05-21T20:02:28.756Z,101173.69
2023-05-21T20:04:57.839Z,101176.38
2023-05-21T20:07:25.608Z,101178.97
2023-05-21T20:09:52.899Z,101179.09
2023-05-21T20:12:20.438Z,101180.94
2023-05-21T20:14:50.452Z,101179.09
2023-05-21T20:17:20.827Z,101175.38
2023-05-21T20:19:48.746Z,101178.97
2023-05-21T20:22:19.758Z,101185.19
2023-05-21T20:24:47.282Z,101189.75
2023-05-21T20:27:19.699Z,101176.38
2023-05-21T20:29:47.297Z,101170.16
2023-05-21T20:32:14.669Z,101172.84
2023-05-21T20:34:54.341Z,101176.38
2023-05-21T20:37:32.248Z,101178.97
2023-05-21T20:39:59.828Z,101169.03
2023-05-21T20:42:31.180Z,101166.34
2023-05-21T20:44:59.125Z,101166.34
2023-05-21T20:47:29.909Z,101173.56
2023-05-21T20:49:58.733Z,101172.44
2023-05-21T20:52:26.823Z,101177.13
2023-05-21T20:54:54.794Z,101185.19
2023-05-21T20:57:22.639Z,101181.53
2023-05-21T20:59:51.473Z,101184.34
2023-05-21T21:02:19.679Z,101182.38
2023-05-21T21:04:50.651Z,101195.97
2023-05-21T21:07:18.523Z,101187.78
2023-05-21T21:09:46.924Z,101186.06
2023-05-21T21:12:25.321Z,101194.00
2023-05-21T21:14:54.415Z,101195.47
2023-05-21T21:17:22.020Z,101193.03
2023-05-21T21:19:49.296Z,101189.50
2023-05-21T21:22:17.006Z,101194.00
2023-05-21T21:24:44.563Z,101191.31
2023-05-21T21:27:12.522Z,101193.16
2023-05-21T21:29:39.844Z,101189.50
2023-05-21T21:32:07.552Z,101198.56
2023-05-21T21:34:35.101Z,101195.97
2023-05-21T21:37:02.833Z,101197.69
2023-05-21T21:39:30.229Z,101206.63
2023-05-21T21:41:58.135Z,101195.84
2023-05-21T21:44:25.631Z,101201.91
2023-05-21T21:46:52.892Z,101197.94
2023-05-21T21:49:20.523Z,101198.78
2023-05-21T21:51:48.382Z,101207.63
2023-05-21T21:54:15.600Z,101208.47
2023-05-21T21:56:42.855Z,101197.94
2023-05-21T21:59:10.401Z,101202.25
2023-05-21T22:01:37.880Z,101199.41
2023-05-21T22:04:05.308Z,101197.69
2023-05-21T22:06:33.173Z,101197.69
2023-05-21T22:09:00.520Z,101202.09
2023-05-21T22:11:28.393Z,101199.13
2023-05-21T22:13:56.079Z,101198.56
2023-05-21T22:16:24.890Z,101195.13
2023-05-21T22:18:54.105Z,101191.31
2023-05-21T22:21:26.986Z,101198.78
2023-05-21T22:23:54.627Z,101201.63
2023-05-21T22:26:23.317Z,101204.34
2023-05-21T22:28:51.417Z,101198.09
2023-05-21T22:31:19.039Z,101198.09
2023-05-21T22:33:46.414Z,101199.91
2023-05-21T22:36:13.634Z,101199.91
2023-05-21T22:38:41.000Z,101199.91
2023-05-21T22:41:08.591Z,101201.75
2023-05-21T22:43:36.198Z,101202.75
2023-05-21T22:46:03.695Z,101204.44
2023-05-21T22:48:31.118Z,101198.22
2023-05-21T22:50:58.481Z,101200.91
2023-05-21T22:53:26.428Z,101196.53
2023-05-21T22:55:53.940Z,101203.59
2023-05-21T22:58:21.248Z,101203.59
2023-05-21T23:00:48.874Z,101193.66
2023-05-21T23:03:16.853Z,101187.59
2023-05-21T23:05:44.536Z,101196.53
2023-05-21T23:08:12.420Z,101197.38
2023-05-21T23:10:41.893Z,101194.66
2023-05-21T23:13:09.286Z,101194.66
2023-05-21T23:15:38.973Z,101199.22
2023-05-21T23:18:07.687Z,101192.97
2023-05-21T23:20:35.211Z,101190.28
2023-05-21T23:23:02.428Z,101185.75
2023-05-21T23:25:29.689Z,101197.38
2023-05-21T23:27:56.936Z,101191.97
2023-05-21T23:30:24.147Z,101184.03
2023-05-21T23:32:51.734Z,101176.81
2023-05-21T23:35:19.319Z,101192.13
2023-05-21T23:37:46.505Z,101184.03
2023-05-21T23:40:13.860Z,101189.44
2023-05-21T23:42:41.275Z,101181.34
2023-05-21T23:45:08.715Z,101175.09
2023-05-21T23:47:36.014Z,101173.28
2023-05-21T23:50:03.241Z,101168.84
2023-05-21T23:52:30.548Z,101183.16
2023-05-21T23:54:57.925Z,101183.16
2023-05-21T23:57:25.294Z,101179.63
2023-05-21T23:59:52.512Z,101178.66
